Terminal Aerodrome Forecast
Issued by NWS

Home | Current Version | Previous Version | Text Only | Print | Product List | Glossary On
Versions: 1 2 3 4 5 6 7 8 9 10 11 12 13 14
000
FTUS46 KSGX 231120
TAFCRQ
TAF
KCRQ 231120Z 2312/2412 VRB05KT P6SM VCSH SCT020 OVC030
     FM231600 VRB04KT P6SM SCT020 BKN030
     FM231900 24011KT P6SM SCT030
     FM240100 VRB04KT P6SM BKN025
     FM240900 VRB04KT P6SM SCT025 OVC030=

USA.gov is the U.S. government's official web portal to all federal, state and local government web resources and services.